Terminal Aerodrome Forecast
Issued by NWS

Home | Current Version | Previous Version | Text Only | Print | Product List | Glossary On
Versions: 1 2 3 4 5 6 7 8 9 10
907
FTUS43 KICT 231720
TAFRSL
TAF
KRSL 231720Z 2318/2418 19017G25KT P6SM SKC
     FM240100 17016KT P6SM SKC
     FM240800 18020G28KT P6SM SCT250
     FM241500 18028G38KT P6SM SCT250=

USA.gov is the U.S. government's official web portal to all federal, state and local government web resources and services.